createdAt,value
2018-06-27T00:00:47.203Z,3.50
2018-06-27T00:03:17.382Z,3.60
2018-06-27T00:05:47.126Z,3.50
2018-06-27T00:08:17.212Z,3.50
2018-06-27T00:10:48.073Z,3.43
2018-06-27T00:13:17.725Z,3.70
2018-06-27T00:15:48.257Z,3.37
2018-06-27T00:18:19.895Z,3.37
2018-06-27T00:20:51.733Z,3.33
2018-06-27T00:23:22.275Z,3.73
2018-06-27T00:25:51.529Z,3.63
2018-06-27T00:28:21.843Z,3.60
2018-06-27T00:30:51.117Z,3.50
2018-06-27T00:33:21.195Z,3.43
2018-06-27T00:35:52.051Z,3.70
2018-06-27T00:38:22.390Z,3.57
2018-06-27T00:40:52.974Z,3.53
2018-06-27T00:43:24.415Z,3.90
2018-06-27T00:45:54.299Z,3.60
2018-06-27T00:48:25.303Z,3.60
2018-06-27T00:50:55.504Z,3.50
2018-06-27T00:53:31.798Z,3.80
2018-06-27T00:56:01.087Z,3.67
2018-06-27T00:58:32.023Z,3.30
2018-06-27T01:01:01.391Z,4.10
2018-06-27T01:03:32.249Z,3.40
2018-06-27T01:06:03.434Z,3.60
2018-06-27T01:08:34.366Z,3.00
2018-06-27T01:11:05.391Z,3.70
2018-06-27T01:13:35.270Z,3.10
2018-06-27T01:16:05.721Z,3.87
2018-06-27T01:18:34.999Z,3.67
2018-06-27T01:21:05.182Z,3.90
2018-06-27T01:23:35.294Z,3.50
2018-06-27T01:26:05.166Z,3.83
2018-06-27T01:28:36.066Z,3.87
2018-06-27T01:31:09.784Z,3.83
2018-06-27T01:33:39.162Z,3.70
2018-06-27T01:36:08.787Z,3.70
2018-06-27T01:38:38.410Z,3.53
2018-06-27T01:41:08.463Z,3.60
2018-06-27T01:43:39.338Z,3.97
2018-06-27T01:46:08.820Z,3.37
2018-06-27T01:48:38.142Z,3.40
2018-06-27T01:51:08.416Z,3.70
2018-06-27T01:53:39.496Z,3.70
2018-06-27T01:56:11.436Z,3.33
2018-06-27T01:58:41.362Z,3.53
2018-06-27T02:01:12.010Z,3.60
2018-06-27T02:03:43.066Z,3.43
2018-06-27T02:06:12.558Z,3.70
2018-06-27T02:08:44.447Z,3.80
2018-06-27T02:11:14.542Z,3.60
2018-06-27T02:13:45.617Z,3.30
2018-06-27T02:16:15.969Z,3.40
2018-06-27T02:18:46.834Z,3.50
2018-06-27T02:21:18.292Z,3.60
2018-06-27T02:23:48.061Z,3.50
2018-06-27T02:26:17.875Z,3.37
2018-06-27T02:28:47.985Z,3.37
2018-06-27T02:31:18.135Z,3.47
2018-06-27T02:33:49.173Z,3.30
2018-06-27T02:36:18.779Z,3.33
2018-06-27T02:38:50.212Z,3.43
2018-06-27T02:41:20.336Z,3.80
2018-06-27T02:43:59.591Z,3.30
2018-06-27T02:46:31.116Z,3.37
2018-06-27T02:49:02.291Z,3.60
2018-06-27T02:51:32.775Z,3.10
2018-06-27T02:54:03.499Z,3.40
2018-06-27T02:56:34.669Z,3.20
2018-06-27T02:59:06.297Z,3.20
2018-06-27T03:01:36.325Z,3.20
2018-06-27T03:04:05.614Z,3.43
2018-06-27T03:06:36.700Z,2.97
2018-06-27T03:09:08.587Z,2.83
2018-06-27T03:11:39.358Z,3.07
2018-06-27T03:14:09.400Z,3.10
2018-06-27T03:16:39.668Z,3.13
2018-06-27T03:19:10.607Z,3.17
2018-06-27T03:21:39.878Z,3.47
2018-06-27T03:24:11.043Z,3.27
2018-06-27T03:26:40.389Z,3.33
2018-06-27T03:29:11.138Z,3.23
2018-06-27T03:31:42.224Z,3.40
2018-06-27T03:34:12.847Z,2.93
2018-06-27T03:36:43.657Z,3.60
2018-06-27T03:39:14.531Z,3.37
2018-06-27T03:41:45.595Z,3.20
2018-06-27T03:44:16.085Z,3.17
2018-06-27T03:46:46.138Z,2.97
2018-06-27T03:49:16.543Z,2.97
2018-06-27T03:51:46.126Z,2.90
2018-06-27T03:54:16.774Z,2.97
2018-06-27T03:56:48.633Z,2.83
2018-06-27T03:59:19.153Z,2.93
2018-06-27T04:01:51.621Z,2.90
2018-06-27T04:04:22.022Z,2.97
2018-06-27T04:06:51.879Z,3.40
2018-06-27T04:09:21.654Z,3.17
2018-06-27T04:11:52.358Z,3.20
2018-06-27T04:14:22.197Z,3.30
2018-06-27T04:16:51.843Z,2.87
2018-06-27T04:19:21.545Z,3.20
2018-06-27T04:21:52.740Z,3.20
2018-06-27T04:24:23.315Z,3.30
2018-06-27T04:26:53.807Z,3.33
2018-06-27T04:29:24.566Z,2.90
2018-06-27T04:31:55.635Z,3.40
2018-06-27T04:34:26.703Z,3.20
2018-06-27T04:36:57.914Z,2.97
2018-06-27T04:39:27.872Z,3.03
2018-06-27T04:41:57.462Z,3.53
2018-06-27T04:44:27.938Z,3.20
2018-06-27T04:46:57.893Z,3.13
2018-06-27T04:49:27.657Z,3.20
2018-06-27T04:51:57.521Z,3.30
2018-06-27T04:54:27.406Z,3.37
2018-06-27T04:56:58.604Z,3.07
2018-06-27T04:59:29.044Z,3.30
2018-06-27T05:01:59.133Z,3.47
2018-06-27T05:04:28.630Z,3.10
2018-06-27T05:06:59.570Z,3.60
2018-06-27T05:09:29.605Z,3.17
2018-06-27T05:11:59.771Z,3.20
2018-06-27T05:14:29.282Z,2.97
2018-06-27T05:17:00.794Z,3.13
2018-06-27T05:19:31.320Z,3.50
2018-06-27T05:22:00.993Z,3.57
2018-06-27T05:24:31.827Z,3.30
2018-06-27T05:27:03.307Z,3.10
2018-06-27T05:29:32.799Z,3.20
2018-06-27T05:32:02.975Z,3.13
2018-06-27T05:34:33.243Z,3.60
2018-06-27T05:37:03.766Z,3.87
2018-06-27T05:39:35.034Z,3.63
2018-06-27T05:42:05.505Z,3.90
2018-06-27T05:44:36.276Z,4.27
2018-06-27T05:47:05.610Z,4.20
2018-06-27T05:49:35.414Z,3.20
2018-06-27T05:52:05.265Z,3.80
2018-06-27T05:54:35.746Z,4.17
2018-06-27T05:57:06.833Z,3.90
2018-06-27T05:59:37.563Z,3.73
2018-06-27T06:02:07.462Z,3.20
2018-06-27T06:04:37.859Z,3.80
2018-06-27T06:07:08.552Z,4.00
2018-06-27T06:09:39.006Z,4.07
2018-06-27T06:12:10.027Z,3.90
2018-06-27T06:14:40.056Z,3.80
2018-06-27T06:17:10.502Z,3.73
2018-06-27T06:19:41.076Z,4.17
2018-06-27T06:22:11.006Z,4.00
2018-06-27T06:24:41.890Z,4.27
2018-06-27T06:27:13.969Z,3.87
2018-06-27T06:29:45.866Z,4.10
2018-06-27T06:32:16.458Z,3.67
2018-06-27T06:34:46.363Z,3.77
2018-06-27T06:37:16.547Z,4.23
2018-06-27T06:39:47.798Z,3.80
2018-06-27T06:42:17.274Z,3.97
2018-06-27T06:44:48.399Z,3.63
2018-06-27T06:47:18.743Z,3.70
2018-06-27T06:49:48.791Z,4.00
2018-06-27T06:52:19.231Z,4.77
2018-06-27T06:54:49.606Z,4.03
2018-06-27T06:57:20.267Z,3.90
2018-06-27T06:59:49.986Z,3.97
2018-06-27T07:02:20.730Z,3.47
2018-06-27T07:04:50.163Z,3.87
2018-06-27T07:07:20.351Z,3.97
2018-06-27T07:09:55.794Z,3.63
2018-06-27T07:12:25.550Z,4.03
2018-06-27T07:14:55.502Z,3.63
2018-06-27T07:17:25.433Z,4.10
2018-06-27T07:19:54.681Z,3.80
2018-06-27T07:22:25.275Z,3.60
2018-06-27T07:24:55.403Z,3.73
2018-06-27T07:27:25.368Z,3.90
2018-06-27T07:29:55.734Z,3.80
2018-06-27T07:32:25.934Z,4.03
2018-06-27T07:34:56.228Z,3.00
2018-06-27T07:37:26.066Z,3.47
2018-06-27T07:39:56.807Z,3.50
2018-06-27T07:42:26.584Z,3.20
2018-06-27T07:44:57.179Z,3.77
2018-06-27T07:47:28.219Z,3.67
2018-06-27T07:49:58.225Z,3.77
2018-06-27T07:52:29.487Z,3.13
2018-06-27T07:54:59.667Z,3.93
2018-06-27T07:57:30.493Z,3.63
2018-06-27T08:00:02.823Z,3.70
2018-06-27T08:02:34.099Z,4.03
2018-06-27T08:05:03.382Z,4.20
2018-06-27T08:07:34.455Z,4.00
2018-06-27T08:10:05.999Z,3.63
2018-06-27T08:12:35.857Z,3.63
2018-06-27T08:15:05.372Z,3.20
2018-06-27T08:17:35.134Z,3.40
2018-06-27T08:20:06.666Z,3.70
2018-06-27T08:22:37.631Z,3.80
2018-06-27T08:25:07.715Z,4.10
2018-06-27T08:27:38.048Z,4.20
2018-06-27T08:30:07.897Z,3.90
2018-06-27T08:32:38.935Z,3.70
2018-06-27T08:35:08.482Z,3.23
2018-06-27T08:37:39.650Z,3.30
2018-06-27T08:40:09.042Z,3.63
2018-06-27T08:42:38.875Z,3.37
2018-06-27T08:45:09.527Z,3.40
2018-06-27T08:47:40.162Z,3.37
2018-06-27T08:50:09.931Z,3.87
2018-06-27T08:52:39.188Z,3.37
2018-06-27T08:55:08.908Z,3.47
2018-06-27T08:57:38.752Z,3.80
2018-06-27T09:00:08.030Z,3.00
2018-06-27T09:02:38.301Z,3.27
2018-06-27T09:05:08.070Z,2.90
2018-06-27T09:07:37.597Z,3.20
2018-06-27T09:10:07.079Z,2.80
2018-06-27T09:12:37.162Z,3.13
2018-06-27T09:15:08.522Z,2.83
2018-06-27T09:17:38.821Z,3.00
2018-06-27T09:20:10.276Z,2.77
2018-06-27T09:22:40.846Z,3.10
2018-06-27T09:25:10.654Z,2.90
2018-06-27T09:27:39.919Z,2.90
2018-06-27T09:30:10.209Z,2.80
2018-06-27T09:32:41.111Z,2.63
2018-06-27T09:35:10.739Z,2.27
2018-06-27T09:37:40.759Z,2.73
2018-06-27T09:40:10.071Z,2.83
2018-06-27T09:42:39.335Z,3.17
2018-06-27T09:45:09.355Z,2.80
2018-06-27T09:47:39.604Z,2.90
2018-06-27T09:50:10.442Z,2.83
2018-06-27T09:52:39.968Z,2.63
2018-06-27T09:55:09.759Z,2.90
2018-06-27T09:57:39.753Z,2.90
2018-06-27T10:00:14.794Z,3.37
2018-06-27T10:02:51.061Z,3.40
2018-06-27T10:05:20.471Z,3.80
2018-06-27T10:07:51.887Z,3.30
2018-06-27T10:10:22.485Z,3.33
2018-06-27T10:12:57.630Z,3.27
2018-06-27T10:15:27.806Z,3.20
2018-06-27T10:17:58.461Z,3.53
2018-06-27T10:20:28.783Z,3.27
2018-06-27T10:22:59.063Z,3.50
2018-06-27T10:25:28.675Z,3.70
2018-06-27T10:27:59.529Z,3.33
2018-06-27T10:30:29.429Z,3.07
2018-06-27T10:33:17.929Z,3.37
2018-06-27T10:35:49.432Z,3.40
2018-06-27T10:38:19.539Z,3.50
2018-06-27T10:40:50.558Z,3.20
2018-06-27T10:43:39.918Z,3.90
2018-06-27T10:46:10.231Z,3.50
2018-06-27T10:48:40.699Z,3.80
2018-06-27T10:51:10.092Z,3.17
2018-06-27T11:03:21.651Z,2.70
2018-06-27T11:05:51.858Z,3.00
2018-06-27T11:08:25.415Z,3.47
2018-06-27T11:10:57.414Z,3.20
2018-06-27T11:13:33.886Z,2.70
2018-06-27T11:16:04.692Z,2.90
2018-06-27T11:18:34.854Z,2.70
2018-06-27T11:21:04.393Z,2.80
2018-06-27T11:23:46.723Z,2.40
2018-06-27T11:26:16.052Z,2.60
2018-06-27T11:28:49.921Z,2.40
2018-06-27T11:31:20.106Z,2.67
2018-06-27T11:33:50.376Z,2.53
2018-06-27T11:36:19.892Z,2.73
2018-06-27T11:38:49.641Z,3.33
2018-06-27T11:41:24.250Z,2.70
2018-06-27T11:46:47.926Z,2.77
2018-06-27T11:49:17.533Z,2.63
2018-06-27T11:51:48.083Z,2.70
2018-06-27T11:54:17.722Z,2.50
2018-06-27T11:56:48.446Z,2.73
2018-06-27T11:59:18.543Z,2.83
2018-06-27T12:01:48.219Z,2.57
2018-06-27T12:04:18.062Z,3.00
2018-06-27T12:06:56.711Z,2.63
2018-06-27T12:09:26.432Z,2.70
2018-06-27T12:11:55.747Z,2.80
2018-06-27T12:14:25.612Z,2.90
2018-06-27T12:16:54.945Z,2.37
2018-06-27T12:19:24.115Z,2.53
2018-06-27T12:21:57.550Z,2.70
2018-06-27T12:24:27.823Z,2.67
2018-06-27T12:26:58.550Z,2.53
2018-06-27T12:29:28.631Z,2.93
2018-06-27T12:31:57.905Z,2.50
2018-06-27T12:34:27.855Z,2.83
2018-06-27T12:37:00.001Z,2.53
2018-06-27T12:39:29.252Z,2.80
2018-06-27T12:41:59.387Z,2.43
2018-06-27T12:44:30.134Z,2.90
2018-06-27T12:47:10.025Z,2.43
2018-06-27T12:49:39.278Z,2.53
2018-06-27T12:52:10.267Z,2.87
2018-06-27T12:54:39.873Z,3.00
2018-06-27T12:57:16.427Z,2.83
2018-06-27T12:59:47.565Z,2.90
2018-06-27T13:02:16.827Z,2.63
2018-06-27T13:04:47.181Z,2.43
2018-06-27T13:07:20.286Z,2.80
2018-06-27T13:09:49.543Z,2.60
2018-06-27T13:12:18.851Z,2.93
2018-06-27T13:14:48.110Z,2.40
2018-06-27T13:17:17.396Z,2.33
2018-06-27T13:19:46.678Z,2.60
2018-06-27T13:22:16.853Z,2.50
2018-06-27T13:24:46.768Z,2.50
2018-06-27T13:27:16.315Z,3.87
2018-06-27T13:29:45.579Z,2.40
2018-06-27T13:32:15.097Z,2.20
2018-06-27T13:34:44.837Z,2.50
2018-06-27T13:37:14.481Z,2.23
2018-06-27T13:42:42.637Z,2.10
2018-06-27T13:45:12.671Z,2.10
2018-06-27T13:47:42.409Z,2.37
2018-06-27T13:50:12.303Z,2.03
2018-06-27T13:52:41.933Z,2.10
2018-06-27T13:55:11.219Z,2.13
2018-06-27T13:57:40.535Z,2.00
2018-06-27T14:00:13.916Z,2.00
2018-06-27T14:02:44.190Z,2.00
2018-06-27T14:05:14.337Z,1.90
2018-06-27T14:07:44.343Z,1.90
2018-06-27T14:10:28.521Z,1.80
2018-06-27T14:12:57.810Z,1.90
2018-06-27T14:15:27.978Z,1.70
2018-06-27T14:17:58.159Z,1.80
2018-06-27T14:20:28.026Z,1.60
2018-06-27T14:22:57.758Z,1.73
2018-06-27T14:25:27.350Z,1.60
2018-06-27T14:27:57.042Z,1.67
2018-06-27T14:30:31.882Z,1.50
2018-06-27T14:33:02.102Z,1.87
2018-06-27T14:35:31.375Z,1.87
2018-06-27T14:38:01.099Z,1.97
2018-06-27T14:40:32.083Z,1.80
2018-06-27T14:43:01.575Z,1.90
2018-06-27T14:45:31.266Z,2.00
2018-06-27T14:48:00.982Z,1.80
2018-06-27T14:50:42.265Z,1.70
2018-06-27T14:53:11.527Z,2.10
2018-06-27T14:55:41.670Z,2.03
2018-06-27T14:58:11.233Z,1.90
2018-06-27T15:00:42.574Z,1.90
2018-06-27T15:03:11.847Z,1.90
2018-06-27T15:05:41.482Z,1.93
2018-06-27T15:08:11.018Z,1.70
2018-06-27T15:10:41.825Z,2.00
2018-06-27T15:13:11.098Z,1.80
2018-06-27T15:15:40.716Z,1.90
2018-06-27T15:18:10.315Z,1.60
2018-06-27T15:25:11.516Z,1.70
2018-06-27T15:30:33.258Z,1.53
2018-06-27T15:33:02.536Z,1.60
2018-06-27T15:35:31.818Z,1.90
2018-06-27T15:38:01.922Z,1.70
2018-06-27T15:40:32.091Z,1.70
2018-06-27T15:43:01.369Z,1.53
2018-06-27T15:45:30.966Z,1.67
2018-06-27T15:48:15.036Z,1.47
2018-06-27T15:50:44.540Z,1.20
2018-06-27T15:53:13.813Z,1.60
2018-06-27T15:55:43.851Z,1.30
2018-06-27T15:58:13.337Z,1.40
2018-06-27T16:00:43.028Z,1.40
2018-06-27T16:03:12.509Z,1.83
2018-06-27T16:05:43.169Z,1.63
2018-06-27T16:08:12.577Z,2.57
2018-06-27T16:10:41.862Z,3.50
2018-06-27T16:13:11.650Z,2.23
2018-06-27T16:15:41.405Z,26.00
2018-06-27T16:18:11.811Z,41.50
2018-06-27T16:20:41.615Z,34.93
2018-06-27T16:23:12.566Z,14.33
2018-06-27T16:25:43.255Z,10.40
2018-06-27T16:28:12.539Z,8.73
2018-06-27T16:30:47.231Z,5.97
2018-06-27T16:33:16.975Z,6.50
2018-06-27T16:35:46.730Z,2.83
2018-06-27T16:38:16.960Z,5.10
2018-06-27T16:40:46.277Z,2.00
2018-06-27T16:43:17.246Z,3.80
2018-06-27T16:45:46.877Z,3.50
2018-06-27T16:48:23.946Z,4.37
2018-06-27T16:50:53.817Z,3.23
2018-06-27T16:53:24.798Z,3.53
2018-06-27T16:55:54.131Z,2.80
2018-06-27T16:58:24.099Z,2.20
2018-06-27T17:00:54.652Z,2.83
2018-06-27T17:03:24.430Z,2.83
2018-06-27T17:05:55.608Z,1.87
2018-06-27T17:08:26.402Z,1.73
2018-06-27T17:10:56.973Z,2.33
2018-06-27T17:13:28.938Z,2.10
2018-06-27T17:15:59.503Z,1.60
2018-06-27T17:18:30.182Z,1.70
2018-06-27T17:20:59.648Z,1.47
2018-06-27T17:23:35.189Z,1.40
2018-06-27T17:26:05.262Z,1.80
2018-06-27T17:31:39.285Z,2.10
2018-06-27T17:34:08.555Z,1.87
2018-06-27T17:36:37.861Z,2.07
2018-06-27T17:39:08.943Z,1.90
2018-06-27T17:44:35.230Z,1.47
2018-06-27T17:47:05.108Z,1.67
2018-06-27T17:49:34.029Z,1.40
2018-06-27T17:52:03.686Z,1.40
2018-06-27T17:54:33.931Z,1.50
2018-06-27T17:57:03.670Z,1.83
2018-06-27T17:59:33.226Z,1.30
2018-06-27T18:02:13.671Z,1.30
2018-06-27T18:04:43.310Z,1.33
2018-06-27T18:07:12.844Z,1.30
2018-06-27T18:09:43.051Z,1.40
2018-06-27T18:12:14.019Z,1.20
2018-06-27T18:14:43.677Z,1.30
2018-06-27T18:17:13.301Z,1.33
2018-06-27T18:19:42.579Z,1.40
2018-06-27T18:22:14.070Z,1.37
2018-06-27T18:24:43.003Z,1.40
2018-06-27T18:27:12.179Z,1.70
2018-06-27T18:29:41.863Z,1.50
2018-06-27T18:32:12.053Z,2.13
2018-06-27T18:34:41.954Z,1.70
2018-06-27T18:37:11.305Z,1.37
2018-06-27T18:39:41.401Z,1.40
2018-06-27T18:42:10.698Z,1.33
2018-06-27T18:44:41.160Z,1.40
2018-06-27T18:47:10.668Z,1.27
2018-06-27T18:49:40.523Z,1.00
2018-06-27T18:52:10.535Z,1.30
2018-06-27T18:54:39.806Z,1.20
2018-06-27T18:57:10.087Z,1.10
2018-06-27T18:59:39.330Z,0.90
2018-06-27T19:02:09.852Z,1.30
2018-06-27T19:04:39.143Z,1.00
2018-06-27T19:07:08.899Z,1.37
2018-06-27T19:09:39.640Z,1.20
2018-06-27T19:12:09.622Z,1.10
2018-06-27T19:14:39.899Z,1.00
2018-06-27T19:17:09.578Z,1.17
2018-06-27T19:19:39.862Z,1.10
2018-06-27T19:22:12.474Z,1.20
2018-06-27T19:24:42.280Z,1.10
2018-06-27T19:27:15.352Z,1.30
2018-06-27T19:29:44.630Z,1.10
2018-06-27T19:32:15.975Z,1.33
2018-06-27T19:34:46.269Z,1.10
2018-06-27T19:37:15.539Z,1.40
2018-06-27T19:39:48.543Z,1.30
2018-06-27T19:42:18.155Z,1.60
2018-06-27T19:44:47.431Z,1.60
2018-06-27T19:47:16.707Z,1.40
2018-06-27T19:49:46.376Z,1.50
2018-06-27T19:52:15.909Z,1.27
2018-06-27T19:54:45.436Z,1.50
2018-06-27T19:57:16.499Z,1.70
2018-06-27T19:59:45.786Z,1.60
2018-06-27T20:02:16.009Z,1.67
2018-06-27T20:04:45.895Z,1.70
2018-06-27T20:07:15.984Z,1.63
2018-06-27T20:09:45.918Z,1.23
2018-06-27T20:12:16.177Z,1.50
2018-06-27T20:14:45.522Z,1.20
2018-06-27T20:17:15.234Z,1.30
2018-06-27T20:19:44.892Z,1.50
2018-06-27T20:22:14.282Z,1.50
2018-06-27T20:24:44.898Z,1.40
2018-06-27T20:27:14.154Z,1.87
2018-06-27T20:29:43.803Z,1.50
2018-06-27T20:32:14.206Z,1.80
2018-06-27T20:34:43.934Z,1.43
2018-06-27T20:37:14.108Z,1.33
2018-06-27T20:39:44.175Z,1.00
2018-06-27T20:42:13.919Z,1.33
2018-06-27T20:44:44.328Z,1.37
2018-06-27T20:47:14.649Z,1.70
2018-06-27T20:49:44.437Z,1.70
2018-06-27T20:52:15.829Z,2.10
2018-06-27T20:54:45.463Z,1.80
2018-06-27T20:57:15.864Z,1.63
2018-06-27T20:59:46.074Z,1.50
2018-06-27T21:02:15.888Z,1.50
2018-06-27T21:04:45.497Z,1.63
2018-06-27T21:07:15.630Z,1.50
2018-06-27T21:09:46.308Z,1.60
2018-06-27T21:12:15.807Z,1.50
2018-06-27T21:14:46.710Z,1.50
2018-06-27T21:17:16.646Z,1.57
2018-06-27T21:19:46.878Z,1.67
2018-06-27T21:22:16.388Z,1.40
2018-06-27T21:24:45.934Z,1.50
2018-06-27T21:27:15.548Z,1.50
2018-06-27T21:29:46.472Z,1.23
2018-06-27T21:32:17.235Z,1.60
2018-06-27T21:34:46.717Z,1.30
2018-06-27T21:37:16.769Z,2.00
2018-06-27T21:39:46.512Z,1.50
2018-06-27T21:42:16.514Z,1.60
2018-06-27T21:44:45.818Z,1.40
2018-06-27T21:47:15.611Z,1.30
2018-06-27T21:49:45.547Z,1.40
2018-06-27T21:52:25.798Z,1.40
2018-06-27T21:54:55.331Z,1.17
2018-06-27T21:57:24.827Z,1.57
2018-06-27T21:59:54.921Z,1.20
2018-06-27T22:02:29.738Z,1.43
2018-06-27T22:05:01.336Z,1.40
2018-06-27T22:07:32.577Z,1.30
2018-06-27T22:10:02.503Z,1.50
2018-06-27T22:12:33.810Z,1.50
2018-06-27T22:15:04.487Z,1.70
2018-06-27T22:17:34.922Z,1.30
2018-06-27T22:20:05.759Z,1.50
2018-06-27T22:22:37.463Z,1.40
2018-06-27T22:25:08.862Z,1.40
2018-06-27T22:27:38.654Z,1.40
2018-06-27T22:30:08.901Z,1.50
2018-06-27T22:32:39.606Z,1.30
2018-06-27T22:35:09.654Z,1.30
2018-06-27T22:37:39.345Z,1.70
2018-06-27T22:40:09.102Z,1.50
2018-06-27T22:42:39.073Z,1.63
2018-06-27T22:45:08.956Z,1.33
2018-06-27T22:47:38.242Z,1.60
2018-06-27T22:50:08.395Z,1.40
2018-06-27T22:52:40.918Z,1.23
2018-06-27T22:55:10.958Z,1.40
2018-06-27T22:57:41.212Z,1.43
2018-06-27T23:00:10.514Z,1.27
2018-06-27T23:02:44.403Z,1.37
2018-06-27T23:05:14.595Z,1.57
2018-06-27T23:07:45.370Z,1.33
2018-06-27T23:10:15.240Z,1.50
2018-06-27T23:12:47.813Z,1.67
2018-06-27T23:15:17.340Z,1.50
2018-06-27T23:17:46.947Z,1.43
2018-06-27T23:20:16.621Z,1.50
2018-06-27T23:22:50.663Z,1.40
2018-06-27T23:25:20.914Z,1.70
2018-06-27T23:27:52.170Z,1.40
2018-06-27T23:30:22.472Z,2.00
2018-06-27T23:32:53.116Z,1.70
2018-06-27T23:35:22.843Z,1.40
2018-06-27T23:37:52.854Z,1.60
2018-06-27T23:40:22.947Z,1.87
2018-06-27T23:42:53.036Z,1.50
2018-06-27T23:45:23.004Z,1.50
2018-06-27T23:47:53.980Z,1.80
2018-06-27T23:50:24.874Z,1.83
2018-06-27T23:52:56.494Z,1.50
2018-06-27T23:55:26.418Z,1.57
2018-06-27T23:57:55.733Z,1.80
